LiveATC.Net - Listen to live air traffic control over the Internet!


ICAO: KRBD  IATA: RBD   Airport: Dallas Executive Airport
City: Dallas   State/Province: Texas
Country: United States   Continent: North America
KRBD METAR Weather: KRBD 082153Z 00000KT 8SM SCT020 SCT029 OVC035 22/19 A3008 RMK AO2 SLP178 T02220194
KRBD ADS-B Flight Tracking (ADSBExchange)
KRBD Flight Activity (FlightAware)
KRBD Airport Info   (iFlightPlanner)
KRBD VFR Sectional Chart   (iFlightPlanner) 
KRBD IFR Low Altitude Chart   (iFlightPlanner) 
KRBD IFR High Altitude Chart   (iFlightPlanner) 

KRBD Ground/Tower
Feed Status: UP   Listeners: 0
Listen in your browser - HTML5 player (in browser, HTML5)
Click here to listen with your own player (launches your MP3 player)
Archive Access: KRBD Ground/Tower
FacilityFrequency
Emergency/Guard121.500
Executive Ground119.475
Executive Tower127.250

NOTICE

Unauthorized use prohibited. See LiveATC.net Terms of Service


Airport/ARTCC Code
Frequency Search
(e.g., 124.400, 128.75)
Site-wide search
 


Browse Feeds
Top 50 Feeds
HF Oceanic Feeds
Coverage Map
Bad Weather Areas

LiveATC FAQ
Offer LiveATC feed
Contact LiveATC.net
Press Inquiries

LiveATC on iPhone
LiveATC on Android

LiveATC Mobile
(Mobile browser)

ATC Audio Archives
Interesting Recordings

LiveATC Forums


Home Page
About LiveATC.net


Terms of Use
Privacy Policy

AIRMETs/SIGMETs

FAA Airport Status
NAS Status
Arrival Demand


Server Software By:
Icecast.org
Liquidsoap